Saturday, December 16, 2017, 5:52 AM EST
Back to Local

KUUU, Newport State Airport

Location: Middletown, RI, United States Lat: 41.533
Local Time: 5:52 AM EST (10:52 GMT) Lon: -71.283
Time Zone: US/Eastern Elev: 170 ft

Show me the last for .
Show Decoded

2017-12-16 04:53 METAR KUUU 160953Z AUTO 28008KT 10SM CLR M06/M08 A2987 RMK AO2 SLP115 T10561083
                 =
2017-12-16 03:53 METAR KUUU 160853Z AUTO 28008G17KT 10SM CLR M06/M08 A2985 RMK AO2 SLP108
                 T10561078 51015 =
2017-12-16 02:53 METAR KUUU 160753Z AUTO 28010KT 10SM OVC085 M05/M08 A2983 RMK AO2 SLP104
                 T10501078 =
2017-12-16 02:08 METAR KUUU 160708Z AUTO 29007KT 10SM SCT016 OVC085 M05/M08 A2983 RMK AO2
                 T10501078 =
2017-12-16 01:53 METAR KUUU 160653Z AUTO 29008G17KT 10SM BKN016 OVC090 M05/M07 A2982 RMK AO2
                 SLP099 T10501072 =
2017-12-16 00:53 METAR KUUU 160553Z AUTO 29005KT 10SM SCT014 SCT018 OVC048 M04/M07 A2980 RMK AO2
                 SNE0457 SLP093 P0000 60008 T10441067 11033 21044 57006 =
2017-12-16 00:42 METAR KUUU 160542Z AUTO 28009KT 10SM BKN012 OVC046 M04/M06 A2980 RMK AO2 SNE0457
                 P0000 T10391061 =
2017-12-15 23:53 METAR KUUU 160453Z AUTO 30007KT 6SM -SN BR FEW007 SCT012 OVC019 M04/M06 A2981
                 RMK AO2 SLP096 P0001 T10391056 410281122 =
2017-12-15 23:48 METAR KUUU 160448Z AUTO 31008KT 4SM -SN BR FEW007 OVC019 M04/M06 A2981 RMK AO2
                 P0001 =
2017-12-15 23:41 METAR KUUU 160441Z AUTO 30006KT 2 1/2SM -SN BR FEW008 OVC019 M04/M06 A2981 RMK
                 AO2 P0001 T10391056 =
2017-12-15 23:08 METAR KUUU 160408Z AUTO 32006KT 1 1/2SM -SN BR FEW008 BKN021 OVC027 M04/M05
                 A2982 RMK AO2 P0000 T10441050 =
2017-12-15 22:53 METAR KUUU 160353Z AUTO 33003KT 1 3/4SM -SN BR BKN017 OVC027 M04/M05 A2982 RMK
                 AO2 SLP099 P0003 T10391050 =
2017-12-15 22:36 METAR KUUU 160336Z AUTO 34005KT 1SM -SN BR FEW007 OVC011 M04/M05 A2982 RMK AO2
                 P0003 T10441050 =
2017-12-15 22:26 METAR KUUU 160326Z AUTO 33006KT 3/4SM -SN BR VV009 M04/M05 A2983 RMK AO2 P0002
                 T10391050 =
2017-12-15 22:19 METAR KUUU 160319Z AUTO 33006KT 1SM -SN BR VV009 M04/M05 A2983 RMK AO2 P0002
                 T10391050 =
2017-12-15 22:16 METAR KUUU 160316Z AUTO 34007KT 1SM -SN BR VV010 M04/M05 A2983 RMK AO2 P0001
                 T10391050 =
2017-12-15 22:05 METAR KUUU 160305Z AUTO 34008KT 3/4SM -SN BR FEW007 OVC013 M04/M04 A2983 RMK AO2
                 P0001 T10391044 =
2017-12-15 21:53 METAR KUUU 160253Z AUTO 33007KT 1 1/4SM -SN BR FEW005 OVC017 M03/M04 A2983 RMK
                 AO2 SLP104 P0002 60004 T10331044 56009 =
2017-12-15 21:37 METAR KUUU 160237Z AUTO 34005KT 1 1/2SM -SN BR FEW006 OVC019 M04/M04 A2983 RMK
                 AO2 P0002 T10391044 =
2017-12-15 21:01 METAR KUUU 160201Z AUTO 36003KT 1 1/2SM -SN BR OVC018 M04/M04 A2984 RMK AO2
                 P0001 T10391044 =
2017-12-15 20:53 METAR KUUU 160153Z AUTO 36003KT 2SM -SN BR BKN019 OVC025 M04/M05 A2984 RMK AO2
                 SLP106 P0001 T10391050 =
2017-12-15 19:53 METAR KUUU 160053Z AUTO 02005KT 1 1/4SM -SN BR BKN019 OVC028 M04/M05 A2986 RMK
                 AO2 SLP113 P0001 T10441050 =
2017-12-15 19:13 METAR KUUU 160013Z AUTO 00000KT 2SM -SN BR BKN024 OVC034 M04/M06 A2988 RMK AO2
                 P0000 T10391056 =
2017-12-15 18:53 METAR KUUU 152353Z AUTO 04003KT 1 1/2SM -SN BR BKN022 OVC030 M04/M06 A2988 RMK
                 AO2 SNB01 SLP119 P0001 60001 T10391056 11028 21039 56014 =
2017-12-15 18:32 METAR KUUU 152332Z AUTO 00000KT 1 3/4SM -SN BR BKN023 OVC031 M04/M06 A2988 RMK
                 AO2 SNB01 P0000 T10391061 =
2017-12-15 18:11 METAR KUUU 152311Z AUTO 00000KT 2 1/2SM -SN OVC029 M03/M07 A2989 RMK AO2 SNB01
                 P0000 T10331072 =
2017-12-15 17:53 METAR KUUU 152253Z AUTO 00000KT 10SM FEW028 SCT034 OVC055 M03/M07 A2989 RMK AO2
                 SLP123 T10331072 =
2017-12-15 16:53 METAR KUUU 152153Z AUTO 02006KT 10SM BKN055 OVC070 M03/M08 A2988 RMK AO2 SLP120
                 T10331078 =
2017-12-15 15:53 METAR KUUU 152053Z AUTO 02005KT 10SM OVC080 M03/M08 A2992 RMK AO2 SLP133
                 T10281078 58028 =
2017-12-15 14:53 METAR KUUU 151953Z AUTO 00000KT 10SM OVC090 M03/M08 A2996 RMK AO2 SLP147
                 T10281078 =
2017-12-15 13:53 METAR KUUU 151853Z AUTO 30003KT 10SM SCT120 M03/M08 A2999 RMK AO2 SLP155
                 T10331078 =
2017-12-15 12:53 METAR KUUU 151753Z AUTO 00000KT 10SM CLR M03/M09 A3000 RMK AO2 SLP161 T10331089
                 11033 21122 58040 =
2017-12-15 11:53 METAR KUUU 151653Z AUTO 00000KT 10SM CLR M04/M09 A3005 RMK AO2 SLP176 T10391094
                 =
2017-12-15 10:53 METAR KUUU 151553Z AUTO 22003KT 10SM CLR M04/M10 A3009 RMK AO2 SLP191 T10441100
                 =
2017-12-15 09:53 METAR KUUU 151453Z AUTO 20004KT 10SM CLR M05/M11 A3012 RMK AO2 SLP202 T10501106
                 53012 =
2017-12-15 08:53 METAR KUUU 151353Z AUTO 18005KT 10SM CLR M07/M11 A3011 RMK AO2 SLP196 T10671111
                 =
2017-12-15 07:53 METAR KUUU 151253Z AUTO 00000KT 10SM CLR M11/M13 A3009 RMK AO2 SLP189 T11061128
                 =
2017-12-15 06:53 METAR KUUU 151153Z AUTO 00000KT 10SM CLR M11/M13 A3009 RMK AO2 SLP190 70004
                 T11111133 11072 21111 53010 =
2017-12-15 05:53 METAR KUUU 151053Z AUTO 28003KT 10SM CLR M09/M13 A3007 RMK AO2 SLP184 T10891133
                 =

Support USWX by starting your Amazon purchase here.